createdAt,value
2022-11-24T00:01:31.621Z,17.80
2022-11-24T00:04:03.771Z,20.60
2022-11-24T00:06:35.278Z,20.60
2022-11-24T00:09:06.156Z,20.80
2022-11-24T00:11:37.085Z,21.50
2022-11-24T00:14:07.186Z,20.30
2022-11-24T00:16:38.106Z,21.90
2022-11-24T00:19:09.852Z,20.70
2022-11-24T00:21:39.144Z,21.00
2022-11-24T00:24:07.855Z,20.60
2022-11-24T00:26:39.876Z,21.40
2022-11-24T00:29:11.875Z,17.00
2022-11-24T00:31:43.321Z,16.50
2022-11-24T00:34:14.950Z,22.50
2022-11-24T00:36:43.656Z,19.60
2022-11-24T00:39:14.863Z,21.40
2022-11-24T00:41:44.601Z,20.10
2022-11-24T00:44:13.798Z,19.10
2022-11-24T00:46:42.662Z,13.50
2022-11-24T00:49:12.092Z,14.50
2022-11-24T00:51:40.886Z,15.60
2022-11-24T00:54:09.772Z,17.40
2022-11-24T00:56:38.571Z,17.50
2022-11-24T00:59:07.460Z,16.70
2022-11-24T01:01:36.897Z,16.90
2022-11-24T01:04:06.258Z,18.00
2022-11-24T01:06:36.689Z,15.10
2022-11-24T01:09:05.380Z,12.80
2022-11-24T01:11:55.063Z,14.90
2022-11-24T01:14:25.519Z,15.80
2022-11-24T01:16:55.295Z,15.40
2022-11-24T01:19:24.641Z,11.60
2022-11-24T01:21:53.714Z,14.10
2022-11-24T01:24:22.588Z,12.80
2022-11-24T01:26:51.475Z,14.00
2022-11-24T01:29:20.257Z,11.70
2022-11-24T01:31:49.081Z,13.80
2022-11-24T01:34:18.047Z,11.10
2022-11-24T01:36:46.843Z,13.80
2022-11-24T01:39:15.823Z,13.80
2022-11-24T01:41:44.725Z,14.40
2022-11-24T01:44:27.192Z,14.00
2022-11-24T01:46:59.410Z,13.20
2022-11-24T01:49:47.386Z,14.20
2022-11-24T01:52:33.117Z,13.70
2022-11-24T01:55:08.610Z,11.60
2022-11-24T01:57:46.540Z,10.30
2022-11-24T02:00:17.165Z,9.60
2022-11-24T02:02:46.450Z,11.70
2022-11-24T02:05:34.760Z,14.90
2022-11-24T02:08:04.435Z,13.70
2022-11-24T02:10:33.765Z,12.00
2022-11-24T02:13:03.165Z,9.80
2022-11-24T02:15:32.852Z,13.00
2022-11-24T02:18:01.670Z,11.70
2022-11-24T02:20:30.974Z,11.60
2022-11-24T02:23:37.949Z,11.60
2022-11-24T02:26:43.115Z,12.00
2022-11-24T02:29:14.205Z,11.90
2022-11-24T02:31:53.173Z,8.60
2022-11-24T02:34:22.132Z,12.60
2022-11-24T02:36:51.048Z,11.90
2022-11-24T02:39:20.232Z,12.70
2022-11-24T02:41:59.386Z,12.30
2022-11-24T02:44:44.975Z,11.90
2022-11-24T02:47:14.180Z,11.70
2022-11-24T02:49:42.884Z,11.30
2022-11-24T02:52:11.747Z,13.00
2022-11-24T02:54:40.540Z,14.20
2022-11-24T02:57:10.206Z,14.40
2022-11-24T02:59:39.128Z,12.50
2022-11-24T03:02:07.824Z,12.10
2022-11-24T03:04:36.755Z,14.10
2022-11-24T03:07:05.715Z,14.10
2022-11-24T03:09:34.800Z,15.30
2022-11-24T03:12:03.492Z,16.10
2022-11-24T03:14:32.896Z,16.50
2022-11-24T03:17:04.248Z,16.90
2022-11-24T03:19:33.551Z,16.10
2022-11-24T03:22:02.436Z,17.10
2022-11-24T03:24:31.421Z,15.20
2022-11-24T03:27:00.355Z,17.50
2022-11-24T03:29:29.417Z,15.10
2022-11-24T03:31:59.339Z,16.00
2022-11-24T03:34:28.016Z,16.60
2022-11-24T03:36:57.233Z,16.00
2022-11-24T03:39:26.105Z,15.50
2022-11-24T03:41:55.006Z,16.00
2022-11-24T03:44:23.895Z,16.60
2022-11-24T03:46:52.789Z,16.50
2022-11-24T03:49:21.568Z,16.10
2022-11-24T03:51:50.385Z,14.50
2022-11-24T03:54:19.253Z,16.40
2022-11-24T03:56:48.248Z,17.10
2022-11-24T03:59:17.351Z,16.60
2022-11-24T04:01:46.286Z,18.10
2022-11-24T04:04:15.336Z,16.50
2022-11-24T04:06:44.015Z,15.40
2022-11-24T04:09:12.924Z,16.00
2022-11-24T04:12:00.136Z,15.50
2022-11-24T04:14:29.029Z,14.30
2022-11-24T04:16:58.025Z,16.10
2022-11-24T04:19:26.911Z,17.70
2022-11-24T04:21:55.706Z,20.70
2022-11-24T04:24:24.595Z,35.20
2022-11-24T04:26:53.486Z,18.30
2022-11-24T04:29:22.377Z,16.70
2022-11-24T04:31:51.252Z,15.00
2022-11-24T04:34:20.267Z,16.50
2022-11-24T04:36:49.048Z,17.30
2022-11-24T04:39:23.159Z,28.40
2022-11-24T04:41:55.016Z,18.80
2022-11-24T04:44:23.818Z,17.20
2022-11-24T04:46:52.848Z,20.60
2022-11-24T04:49:21.914Z,21.90
2022-11-24T04:51:50.805Z,18.70
2022-11-24T04:54:19.603Z,20.90
2022-11-24T04:56:52.124Z,19.00
2022-11-24T04:59:21.070Z,18.40
2022-11-24T05:01:50.151Z,20.40
2022-11-24T05:04:20.742Z,20.30
2022-11-24T05:06:49.567Z,21.10
2022-11-24T05:09:18.572Z,21.20
2022-11-24T05:11:47.567Z,21.40
2022-11-24T05:14:16.353Z,23.60
2022-11-24T05:16:45.241Z,26.10
2022-11-24T05:19:14.434Z,22.10
2022-11-24T05:21:43.258Z,21.60
2022-11-24T05:24:12.425Z,22.50
2022-11-24T05:26:41.323Z,21.70
2022-11-24T05:29:10.212Z,22.90
2022-11-24T05:31:39.290Z,21.50
2022-11-24T05:34:08.230Z,21.00
2022-11-24T05:36:55.109Z,26.00
2022-11-24T05:39:24.213Z,23.60
2022-11-24T05:41:53.338Z,23.60
2022-11-24T05:44:22.091Z,21.60
2022-11-24T05:46:51.345Z,22.80
2022-11-24T05:49:20.194Z,21.10
2022-11-24T05:51:48.972Z,22.20
2022-11-24T05:54:18.167Z,21.10
2022-11-24T05:56:46.963Z,20.00
2022-11-24T05:59:15.745Z,17.40
2022-11-24T06:01:44.570Z,19.60
2022-11-24T06:04:13.740Z,19.10
2022-11-24T06:06:42.623Z,20.20
2022-11-24T06:09:11.527Z,22.60
2022-11-24T06:11:40.517Z,19.70
2022-11-24T06:14:11.542Z,20.20
2022-11-24T06:16:40.767Z,20.40
2022-11-24T06:19:13.032Z,17.30
2022-11-24T06:21:41.719Z,17.90
2022-11-24T06:24:10.711Z,16.20
2022-11-24T06:26:39.388Z,19.50
2022-11-24T06:29:08.490Z,17.10
2022-11-24T06:31:37.424Z,18.40
2022-11-24T06:34:08.638Z,17.20
2022-11-24T06:36:39.056Z,16.20
2022-11-24T06:39:08.655Z,11.50
2022-11-24T06:41:37.447Z,14.60
2022-11-24T06:44:06.453Z,16.60
2022-11-24T06:46:35.271Z,18.20
2022-11-24T06:49:04.176Z,15.40
2022-11-24T06:51:33.322Z,13.70
2022-11-24T06:54:02.311Z,17.70
2022-11-24T06:56:31.002Z,16.30
2022-11-24T06:58:59.892Z,16.50
2022-11-24T07:01:30.442Z,17.00
2022-11-24T07:03:59.669Z,11.50
2022-11-24T07:06:28.817Z,13.80
2022-11-24T07:08:57.614Z,14.30
2022-11-24T07:11:26.420Z,13.40
2022-11-24T07:13:59.859Z,15.10
2022-11-24T07:16:29.859Z,14.00
2022-11-24T07:18:59.705Z,15.20
2022-11-24T07:21:30.840Z,15.00
2022-11-24T07:23:59.771Z,15.40
2022-11-24T07:26:28.663Z,16.80
2022-11-24T07:28:57.549Z,18.70
2022-11-24T07:31:26.508Z,15.80
2022-11-24T07:33:56.279Z,15.20
2022-11-24T07:36:25.461Z,13.60
2022-11-24T07:38:54.353Z,15.90
2022-11-24T07:41:23.388Z,15.80
2022-11-24T07:43:52.338Z,14.10
2022-11-24T07:46:21.607Z,14.80
2022-11-24T07:48:50.639Z,17.20
2022-11-24T07:51:19.518Z,12.90
2022-11-24T07:53:48.561Z,14.90
2022-11-24T07:56:17.414Z,17.90
2022-11-24T07:58:51.365Z,15.10
2022-11-24T08:01:21.956Z,14.80
2022-11-24T08:03:51.231Z,14.60
2022-11-24T08:06:27.688Z,15.20
2022-11-24T08:08:58.480Z,11.80
2022-11-24T08:11:28.340Z,14.90
2022-11-24T08:13:57.398Z,16.10
2022-11-24T08:16:26.093Z,14.60
2022-11-24T08:18:56.526Z,15.60
2022-11-24T08:21:25.796Z,15.50
2022-11-24T08:23:57.126Z,15.90
2022-11-24T08:26:26.720Z,14.30
2022-11-24T08:28:59.367Z,15.20
2022-11-24T08:31:34.101Z,16.20
2022-11-24T08:34:04.575Z,17.10
2022-11-24T08:36:34.391Z,15.00
2022-11-24T08:39:03.893Z,15.90
2022-11-24T08:41:33.711Z,14.80
2022-11-24T08:44:02.386Z,10.90
2022-11-24T08:46:31.388Z,16.00
2022-11-24T08:49:00.376Z,15.00
2022-11-24T08:51:30.095Z,17.20
2022-11-24T08:54:01.731Z,15.80
2022-11-24T08:56:33.258Z,15.50
2022-11-24T08:59:03.197Z,16.80
2022-11-24T09:01:32.530Z,17.70
2022-11-24T09:04:01.361Z,15.20
2022-11-24T09:06:33.171Z,12.90
2022-11-24T09:09:02.891Z,13.60
2022-11-24T09:11:34.508Z,13.10
2022-11-24T09:14:03.623Z,12.50
2022-11-24T09:16:32.548Z,11.80
2022-11-24T09:19:08.386Z,12.60
2022-11-24T09:21:39.212Z,12.30
2022-11-24T09:24:09.028Z,13.80
2022-11-24T09:26:43.108Z,11.30
2022-11-24T09:29:14.183Z,10.50
2022-11-24T09:31:42.979Z,11.10
2022-11-24T09:34:15.773Z,8.30
2022-11-24T09:36:44.541Z,11.10
2022-11-24T09:39:13.943Z,10.40
2022-11-24T09:42:48.043Z,11.50
2022-11-24T09:46:07.678Z,9.10
2022-11-24T09:48:42.194Z,9.00
2022-11-24T09:51:14.530Z,8.60
2022-11-24T09:53:55.134Z,10.10
2022-11-24T09:56:28.719Z,11.00
2022-11-24T09:58:57.396Z,10.20
2022-11-24T10:01:33.350Z,11.10
2022-11-24T10:04:06.459Z,11.60
2022-11-24T10:09:29.210Z,12.30
2022-11-24T10:18:05.220Z,10.40
2022-11-24T10:20:51.936Z,11.40
2022-11-24T10:24:07.006Z,12.40
2022-11-24T10:26:39.211Z,11.80
2022-11-24T10:29:37.053Z,8.70
2022-11-24T10:32:22.745Z,9.30
2022-11-24T10:34:51.724Z,11.20
2022-11-24T10:37:40.984Z,9.30
2022-11-24T10:40:55.931Z,11.80
2022-11-24T10:43:22.701Z,11.70
2022-11-24T10:45:51.744Z,12.20
2022-11-24T10:48:27.726Z,10.40
2022-11-24T10:51:34.029Z,12.60
2022-11-24T10:54:18.510Z,11.90
2022-11-24T10:56:51.051Z,12.10
2022-11-24T10:59:40.649Z,11.90
2022-11-24T11:02:39.623Z,12.30
2022-11-24T11:05:43.957Z,13.40
2022-11-24T11:08:25.562Z,15.30
2022-11-24T11:11:18.402Z,19.20
2022-11-24T11:14:03.322Z,14.40
2022-11-24T11:16:41.696Z,15.90
2022-11-24T11:20:00.064Z,14.60
2022-11-24T11:22:36.315Z,14.90
2022-11-24T11:25:11.234Z,18.50
2022-11-24T11:27:42.164Z,17.20
2022-11-24T11:36:25.650Z,16.90
2022-11-24T11:38:54.845Z,14.60
2022-11-24T11:41:34.181Z,16.20
2022-11-24T11:44:32.042Z,13.70
2022-11-24T11:47:08.942Z,12.80
2022-11-24T11:49:39.672Z,13.20
2022-11-24T11:52:45.112Z,14.10
2022-11-24T11:55:19.628Z,14.30
2022-11-24T11:58:31.851Z,17.00
2022-11-24T12:01:26.644Z,16.20
2022-11-24T12:04:10.715Z,15.60
2022-11-24T12:07:22.856Z,16.80
2022-11-24T12:10:09.611Z,15.80
2022-11-24T12:12:59.904Z,14.90
2022-11-24T12:15:46.639Z,14.40
2022-11-24T12:18:57.636Z,14.90
2022-11-24T12:22:07.785Z,14.90
2022-11-24T12:25:28.546Z,15.40
2022-11-24T12:28:31.334Z,13.60
2022-11-24T12:31:51.617Z,12.60
2022-11-24T12:34:59.033Z,13.90
2022-11-24T12:38:47.814Z,12.40
2022-11-24T12:41:54.784Z,12.90
2022-11-24T12:45:01.349Z,12.80
2022-11-24T12:47:49.190Z,10.30
2022-11-24T12:50:31.156Z,14.40
2022-11-24T12:53:32.332Z,15.60
2022-11-24T12:56:13.441Z,9.80
2022-11-24T12:59:13.038Z,12.30
2022-11-24T13:02:03.350Z,9.90
2022-11-24T13:05:00.369Z,12.70
2022-11-24T13:07:47.677Z,14.20
2022-11-24T13:13:28.700Z,15.60
2022-11-24T13:16:20.693Z,15.20
2022-11-24T13:19:02.773Z,15.70
2022-11-24T13:21:40.861Z,15.40
2022-11-24T13:24:20.206Z,15.30
2022-11-24T13:26:54.085Z,16.10
2022-11-24T13:29:34.404Z,13.50
2022-11-24T13:32:22.975Z,17.10
2022-11-24T13:34:55.338Z,15.00
2022-11-24T13:37:35.489Z,16.90
2022-11-24T13:40:13.956Z,17.40
2022-11-24T13:42:57.956Z,15.70
2022-11-24T13:45:47.376Z,17.20
2022-11-24T13:48:19.859Z,18.10
2022-11-24T13:50:54.688Z,20.20
2022-11-24T13:53:43.625Z,14.90
2022-11-24T13:56:12.337Z,16.40
2022-11-24T13:58:45.275Z,15.70
2022-11-24T14:01:22.463Z,16.60
2022-11-24T14:04:28.553Z,11.50
2022-11-24T14:06:52.667Z,18.40
2022-11-24T14:09:37.126Z,20.10
2022-11-24T14:12:26.877Z,20.30
2022-11-24T14:15:23.150Z,22.10
2022-11-24T14:17:51.842Z,15.10
2022-11-24T14:20:27.069Z,13.20
2022-11-24T14:22:55.796Z,14.20
2022-11-24T14:25:31.824Z,15.50
2022-11-24T14:28:00.837Z,15.50
2022-11-24T14:30:29.726Z,15.60
2022-11-24T14:33:01.891Z,15.20
2022-11-24T14:35:36.658Z,14.70
2022-11-24T14:38:06.772Z,16.00
2022-11-24T14:40:50.212Z,14.60
2022-11-24T14:46:06.640Z,18.30
2022-11-24T14:48:53.577Z,23.80
2022-11-24T14:51:27.159Z,16.20
2022-11-24T14:54:00.700Z,10.80
2022-11-24T14:56:35.360Z,18.80
2022-11-24T14:59:20.670Z,19.00
2022-11-24T15:01:49.465Z,20.00
2022-11-24T15:07:27.572Z,20.70
2022-11-24T15:10:02.852Z,22.40
2022-11-24T15:12:48.585Z,20.30
2022-11-24T15:15:24.187Z,18.90
2022-11-24T15:18:00.447Z,14.30
2022-11-24T15:20:46.155Z,16.90
2022-11-24T15:23:23.719Z,14.80
2022-11-24T15:25:57.603Z,15.50
2022-11-24T15:28:26.546Z,16.00
2022-11-24T15:31:02.382Z,16.80
2022-11-24T15:33:31.707Z,20.50
2022-11-24T15:36:01.014Z,12.80
2022-11-24T15:38:29.726Z,20.10
2022-11-24T15:41:01.181Z,18.10
2022-11-24T15:43:32.647Z,19.40
2022-11-24T15:46:03.799Z,19.40
2022-11-24T15:48:33.237Z,18.30
2022-11-24T15:51:05.833Z,22.70
2022-11-24T15:53:39.676Z,18.70
2022-11-24T15:56:15.581Z,19.70
2022-11-24T15:58:44.218Z,18.30
2022-11-24T16:01:13.002Z,17.80
2022-11-24T16:03:49.452Z,18.70
2022-11-24T16:06:25.294Z,16.90
2022-11-24T16:08:54.759Z,12.40
2022-11-24T16:11:23.522Z,14.90
2022-11-24T16:13:54.252Z,18.90
2022-11-24T16:16:25.399Z,19.00
2022-11-24T16:18:54.284Z,17.50
2022-11-24T16:21:23.538Z,17.50
2022-11-24T16:23:52.298Z,17.90
2022-11-24T16:28:08.091Z,18.30
2022-11-24T16:30:36.708Z,17.70
2022-11-24T16:33:06.936Z,18.20
2022-11-24T16:35:35.671Z,20.40
2022-11-24T16:38:04.373Z,13.60
2022-11-24T16:40:33.086Z,16.30
2022-11-24T16:43:01.749Z,19.40
2022-11-24T16:45:30.507Z,19.10
2022-11-24T16:48:01.580Z,16.60
2022-11-24T16:50:30.266Z,16.70
2022-11-24T16:52:59.013Z,17.40
2022-11-24T16:55:27.799Z,15.90
2022-11-24T16:57:56.940Z,15.80
2022-11-24T17:00:25.839Z,17.70
2022-11-24T17:02:54.637Z,18.20
2022-11-24T17:05:23.500Z,18.20
2022-11-24T17:07:52.325Z,17.00
2022-11-24T17:10:21.528Z,17.00
2022-11-24T17:12:50.272Z,15.10
2022-11-24T17:15:32.956Z,17.90
2022-11-24T17:18:24.355Z,15.60
2022-11-24T17:20:52.037Z,15.80
2022-11-24T17:23:20.634Z,16.70
2022-11-24T17:25:49.358Z,17.70
2022-11-24T17:28:18.390Z,15.90
2022-11-24T17:30:47.470Z,17.80
2022-11-24T17:33:16.230Z,19.60
2022-11-24T17:35:45.045Z,14.70
2022-11-24T17:38:14.126Z,15.50
2022-11-24T17:40:48.303Z,13.50
2022-11-24T17:43:17.007Z,15.10
2022-11-24T17:45:54.011Z,13.70
2022-11-24T17:48:23.965Z,13.70
2022-11-24T17:51:11.155Z,10.40
2022-11-24T17:53:42.145Z,13.10
2022-11-24T17:56:22.065Z,13.50
2022-11-24T17:58:56.838Z,14.10
2022-11-24T18:01:28.770Z,15.30
2022-11-24T18:03:58.515Z,14.90
2022-11-24T18:06:29.124Z,17.20
2022-11-24T18:08:58.441Z,17.70
2022-11-24T18:11:32.418Z,18.00
2022-11-24T18:14:04.271Z,15.80
2022-11-24T18:16:34.757Z,15.70
2022-11-24T18:19:10.953Z,14.40
2022-11-24T18:21:41.790Z,18.80
2022-11-24T18:24:12.674Z,19.20
2022-11-24T18:26:42.365Z,18.10
2022-11-24T18:29:12.049Z,27.40
2022-11-24T18:31:41.026Z,20.70
2022-11-24T18:34:09.717Z,19.50
2022-11-24T18:36:38.462Z,21.20
2022-11-24T18:39:09.345Z,22.40
2022-11-24T18:41:39.913Z,21.10
2022-11-24T18:44:09.134Z,21.60
2022-11-24T18:46:38.357Z,14.40
2022-11-24T18:49:07.712Z,16.10
2022-11-24T18:51:36.683Z,18.00
2022-11-24T18:54:06.047Z,19.00
2022-11-24T18:56:34.767Z,19.80
2022-11-24T18:59:03.610Z,20.20
2022-11-24T19:01:32.672Z,23.80
2022-11-24T19:04:03.443Z,20.50
2022-11-24T19:06:38.316Z,23.30
2022-11-24T19:09:18.653Z,21.10
2022-11-24T19:11:47.825Z,22.00
2022-11-24T19:14:19.345Z,23.00
2022-11-24T19:16:48.484Z,21.50
2022-11-24T19:19:17.618Z,22.30
2022-11-24T19:21:46.416Z,23.80
2022-11-24T19:24:15.091Z,23.80
2022-11-24T19:26:43.828Z,17.00
2022-11-24T19:29:12.973Z,19.70
2022-11-24T19:31:41.674Z,16.30
2022-11-24T19:34:10.507Z,17.00
2022-11-24T19:36:40.867Z,17.40
2022-11-24T19:39:15.899Z,17.50
2022-11-24T19:41:45.112Z,16.40
2022-11-24T19:44:14.394Z,17.00
2022-11-24T19:46:43.038Z,16.20
2022-11-24T19:49:12.040Z,17.80
2022-11-24T19:51:41.031Z,17.20
2022-11-24T19:54:13.655Z,17.40
2022-11-24T19:56:42.547Z,17.00
2022-11-24T19:59:15.270Z,16.30
2022-11-24T20:01:44.128Z,16.40
2022-11-24T20:04:15.191Z,18.20
2022-11-24T20:06:47.844Z,20.00
2022-11-24T20:09:18.485Z,16.10
2022-11-24T20:11:48.831Z,17.50
2022-11-24T20:14:23.362Z,19.80
2022-11-24T20:16:52.090Z,18.90
2022-11-24T20:19:20.808Z,17.80
2022-11-24T20:21:50.607Z,17.50
2022-11-24T20:24:23.571Z,18.90
2022-11-24T20:26:58.432Z,17.50
2022-11-24T20:29:29.360Z,14.30
2022-11-24T20:31:58.348Z,16.00
2022-11-24T20:34:28.678Z,15.40
2022-11-24T20:36:57.469Z,14.60
2022-11-24T20:39:28.771Z,14.40
2022-11-24T20:41:58.378Z,16.10
2022-11-24T20:44:28.043Z,13.30
2022-11-24T20:47:00.086Z,15.10
2022-11-24T20:49:29.002Z,15.00
2022-11-24T20:51:57.733Z,15.30
2022-11-24T20:54:26.675Z,16.10
2022-11-24T20:56:56.297Z,15.30
2022-11-24T20:59:26.209Z,16.40
2022-11-24T21:01:56.209Z,16.60
2022-11-24T21:04:27.449Z,15.40
2022-11-24T21:06:57.063Z,14.40
2022-11-24T21:09:27.506Z,15.90
2022-11-24T21:11:56.704Z,16.70
2022-11-24T21:14:25.597Z,17.60
2022-11-24T21:16:54.569Z,17.80
2022-11-24T21:19:23.578Z,15.60
2022-11-24T21:21:52.475Z,16.60
2022-11-24T21:24:23.919Z,16.20
2022-11-24T21:26:53.158Z,15.20
2022-11-24T21:29:23.843Z,14.80
2022-11-24T21:31:52.909Z,14.80
2022-11-24T21:34:22.044Z,8.80
2022-11-24T21:36:51.265Z,12.50
2022-11-24T21:39:20.063Z,12.50
2022-11-24T21:41:49.240Z,14.60
2022-11-24T21:44:18.156Z,14.40
2022-11-24T21:46:52.581Z,13.50
2022-11-24T21:49:23.071Z,14.30
2022-11-24T21:51:56.104Z,15.60
2022-11-24T21:54:25.300Z,16.30
2022-11-24T21:56:54.886Z,16.80
2022-11-24T21:59:23.775Z,16.60
2022-11-24T22:01:53.327Z,16.10
2022-11-24T22:04:22.387Z,15.90
2022-11-24T22:06:53.905Z,18.90
2022-11-24T22:09:23.121Z,16.70
2022-11-24T22:11:53.765Z,14.30
2022-11-24T22:14:23.065Z,17.30
2022-11-24T22:16:52.513Z,16.70
2022-11-24T22:19:22.075Z,18.60
2022-11-24T22:21:51.158Z,17.10
2022-11-24T22:24:25.792Z,18.40
2022-11-24T22:26:56.519Z,18.60
2022-11-24T22:29:25.618Z,19.50
2022-11-24T22:31:55.374Z,17.90
2022-11-24T22:34:24.527Z,17.60
2022-11-24T22:36:54.217Z,20.20
2022-11-24T22:39:23.651Z,13.40
2022-11-24T22:41:54.167Z,19.40
2022-11-24T22:44:23.388Z,19.40
2022-11-24T22:46:52.591Z,21.70
2022-11-24T22:57:21.225Z,22.10
2022-11-24T22:59:50.213Z,24.20
2022-11-24T23:02:19.519Z,22.70
2022-11-24T23:04:48.706Z,22.20
2022-11-24T23:07:17.746Z,21.00
2022-11-24T23:09:47.974Z,19.50
2022-11-24T23:12:17.034Z,22.50
2022-11-24T23:14:46.161Z,21.50
2022-11-24T23:17:15.313Z,20.60
2022-11-24T23:19:44.407Z,20.40
2022-11-24T23:22:13.452Z,19.10
2022-11-24T23:24:42.596Z,21.90
2022-11-24T23:27:11.606Z,23.40
2022-11-24T23:29:40.691Z,22.10
2022-11-24T23:32:09.689Z,18.90
2022-11-24T23:34:38.630Z,17.20
2022-11-24T23:37:07.685Z,17.60
2022-11-24T23:39:36.575Z,18.70
2022-11-24T23:42:05.981Z,19.90
2022-11-24T23:44:35.599Z,19.10
2022-11-24T23:47:05.181Z,22.50
2022-11-24T23:49:34.186Z,24.70
2022-11-24T23:52:03.066Z,22.20
2022-11-24T23:54:31.983Z,22.60
2022-11-24T23:57:00.765Z,23.80
2022-11-24T23:59:29.509Z,19.20
